Time;durP1;ratioP1;P1;durP2;ratioP2;P2;SDS_P1;SDS_P2;PMS_P1;PMS_P2;Temp;Humidity;BMP_temperature;BMP_pressure;BME280_temperature;BME280_humidity;BME280_pressure;Samples;Min_cycle;Max_cycle;Signal;HPM_P1;HPM_P2
2023/07/24 00:00:24;;;;;;;2.93;2.80;;;20.40;99.90;;;;;;5130065;28;20545;-44
2023/07/24 00:02:56;;;;;;;5.97;3.20;;;20.50;99.90;;;;;;5128838;28;20473;-44
2023/07/24 00:05:26;;;;;;;2.27;2.07;;;20.40;99.90;;;;;;5128100;28;20258;-42
2023/07/24 00:07:57;;;;;;;3.23;2.97;;;20.50;99.90;;;;;;5129921;28;20449;-44
2023/07/24 00:10:27;;;;;;;2.40;2.20;;;20.40;99.90;;;;;;5131496;28;20639;-43
2023/07/24 00:12:58;;;;;;;2.73;2.13;;;20.30;99.90;;;;;;5129779;28;20221;-43
2023/07/24 00:15:29;;;;;;;2.73;2.63;;;20.30;99.90;;;;;;5133245;28;20182;-43
2023/07/24 00:17:59;;;;;;;3.57;2.57;;;20.40;99.90;;;;;;5130212;28;20178;-43
2023/07/24 00:20:30;;;;;;;2.70;2.50;;;20.30;99.90;;;;;;5139464;28;20236;-44
2023/07/24 00:23:00;;;;;;;2.73;2.53;;;20.30;99.90;;;;;;5135297;28;20280;-43
2023/07/24 00:25:31;;;;;;;3.03;2.13;;;20.20;99.90;;;;;;5137127;28;20665;-43
2023/07/24 00:28:02;;;;;;;2.93;2.60;;;20.10;99.90;;;;;;5141043;28;20189;-44
2023/07/24 00:30:32;;;;;;;3.13;2.57;;;20.10;99.90;;;;;;5136993;28;20189;-43
2023/07/24 00:33:03;;;;;;;2.70;2.50;;;20.20;99.90;;;;;;5132976;28;20197;-43
2023/07/24 00:35:33;;;;;;;2.30;2.17;;;20.20;99.90;;;;;;5135356;28;20221;-42
2023/07/24 00:38:04;;;;;;;7.37;3.00;;;20.30;99.90;;;;;;5147156;28;20186;-42
2023/07/24 00:40:35;;;;;;;2.20;2.10;;;20.20;99.90;;;;;;5145335;28;20236;-43
2023/07/24 00:43:05;;;;;;;3.73;3.33;;;20.00;99.90;;;;;;5140622;28;20217;-43
2023/07/24 00:45:36;;;;;;;2.33;2.23;;;19.90;99.90;;;;;;5143244;28;20234;-42
2023/07/24 00:48:07;;;;;;;2.23;2.13;;;19.90;99.90;;;;;;5131558;28;20212;-43
2023/07/24 00:50:38;;;;;;;3.80;2.63;;;19.90;99.90;;;;;;5124749;28;20174;-44
2023/07/24 00:53:08;;;;;;;3.10;2.20;;;20.00;99.90;;;;;;5135028;28;20233;-43
2023/07/24 00:55:40;;;;;;;2.53;2.37;;;20.00;99.90;;;;;;5128548;28;20476;-44
2023/07/24 00:58:11;;;;;;;2.53;2.33;;;19.90;99.90;;;;;;5141362;28;20205;-43
2023/07/24 01:00:42;;;;;;;3.20;2.90;;;19.90;99.90;;;;;;5135065;28;20439;-43
2023/07/24 01:03:13;;;;;;;4.47;2.70;;;19.90;99.90;;;;;;5134070;28;20460;-44
2023/07/24 01:05:44;;;;;;;3.00;2.80;;;19.90;99.90;;;;;;5132587;28;20440;-43
2023/07/24 01:08:15;;;;;;;3.20;3.00;;;20.00;99.90;;;;;;5132791;28;20432;-43
2023/07/24 01:10:46;;;;;;;2.57;2.37;;;20.00;99.90;;;;;;5136627;28;20763;-44
2023/07/24 01:13:22;;;;;;;2.63;2.53;;;19.90;99.90;;;;;;5133557;28;20213;-43
2023/07/24 01:16:05;;;;;;;3.33;2.27;;;19.80;99.90;;;;;;5157144;28;20221;-43
2023/07/24 01:18:38;;;;;;;3.53;2.00;;;19.80;99.90;;;;;;5140431;28;20425;-42
2023/07/24 01:21:12;;;;;;;4.77;3.10;;;19.70;99.90;;;;;;5144386;28;21021;-42
2023/07/24 01:24:18;;;;;;;2.90;2.70;;;19.60;99.90;;;;;;5137290;28;20532;-44
2023/07/24 01:26:49;;;;;;;2.70;2.50;;;19.60;99.90;;;;;;5144152;28;20465;-42
2023/07/24 01:29:20;;;;;;;3.10;2.90;;;19.70;99.90;;;;;;5145203;28;20448;-42
2023/07/24 01:31:51;;;;;;;4.57;2.63;;;19.70;99.90;;;;;;5142809;28;20438;-43
2023/07/24 01:34:22;;;;;;;3.60;2.47;;;19.60;99.90;;;;;;5135157;28;20217;-43
2023/07/24 01:36:53;;;;;;;2.60;2.43;;;19.80;99.90;;;;;;5136876;28;20189;-42
2023/07/24 01:39:23;;;;;;;2.67;2.47;;;19.80;99.90;;;;;;5140862;28;20185;-42
2023/07/24 01:41:54;;;;;;;2.57;2.00;;;19.70;99.90;;;;;;5135589;28;20190;-42
2023/07/24 01:44:28;;;;;;;6.73;2.77;;;19.80;99.90;;;;;;5139340;28;20216;-43
2023/07/24 01:46:59;;;;;;;2.97;2.63;;;19.70;99.90;;;;;;5134375;28;20186;-43
2023/07/24 01:49:31;;;;;;;4.00;2.70;;;19.80;99.90;;;;;;5135736;28;20449;-43
2023/07/24 01:52:02;;;;;;;2.70;2.50;;;19.80;99.90;;;;;;5134393;28;20710;-42
2023/07/24 01:54:32;;;;;;;2.30;2.20;;;19.80;99.90;;;;;;5122208;28;20831;-43
2023/07/24 01:57:04;;;;;;;2.27;2.17;;;19.80;99.90;;;;;;5129844;28;20441;-42
2023/07/24 01:59:34;;;;;;;3.03;2.60;;;19.80;99.90;;;;;;5132616;28;20190;-42
2023/07/24 02:02:05;;;;;;;4.30;2.23;;;19.90;99.90;;;;;;5136334;28;20464;-43
2023/07/24 02:04:36;;;;;;;2.30;2.10;;;19.90;99.90;;;;;;5137992;28;20716;-42
2023/07/24 02:07:06;;;;;;;2.27;2.17;;;20.00;99.90;;;;;;5134166;28;20241;-43
2023/07/24 02:09:37;;;;;;;2.10;1.87;;;20.20;99.90;;;;;;5136062;28;20197;-43
2023/07/24 02:12:08;;;;;;;1.70;1.70;;;20.30;99.90;;;;;;5135335;28;20206;-43
2023/07/24 02:14:39;;;;;;;2.70;2.50;;;20.30;99.90;;;;;;5132033;28;20301;-43
2023/07/24 02:17:09;;;;;;;1.97;1.87;;;20.30;99.90;;;;;;5136602;28;20181;-42
2023/07/24 02:19:40;;;;;;;4.57;2.50;;;20.10;99.90;;;;;;5139021;28;20217;-43
2023/07/24 02:22:11;;;;;;;5.67;2.20;;;20.20;99.90;;;;;;5137867;28;20182;-43
2023/07/24 02:24:42;;;;;;;2.50;2.30;;;20.20;99.90;;;;;;5133323;28;20212;-42
2023/07/24 02:27:24;;;;;;;2.53;2.30;;;20.20;99.90;;;;;;5129294;28;20190;-42
2023/07/24 02:29:54;;;;;;;7.00;2.20;;;20.10;99.90;;;;;;5147258;28;20190;-43
2023/07/24 02:32:25;;;;;;;2.13;1.50;;;20.00;99.90;;;;;;5141357;28;20443;-43
2023/07/24 02:34:56;;;;;;;2.40;2.20;;;20.10;99.90;;;;;;5136450;28;20206;-43
2023/07/24 02:37:27;;;;;;;3.00;2.27;;;20.30;99.90;;;;;;5130964;28;20716;-44
2023/07/24 02:39:57;;;;;;;1.90;1.80;;;20.40;99.90;;;;;;5132105;28;20185;-42
2023/07/24 02:42:28;;;;;;;11.73;1.93;;;20.20;99.90;;;;;;5136708;28;20590;-42
2023/07/24 02:44:59;;;;;;;6.70;2.23;;;20.20;99.90;;;;;;5132913;28;20618;-42
2023/07/24 02:47:30;;;;;;;2.63;2.40;;;20.10;99.90;;;;;;5144192;28;20284;-42
2023/07/24 02:50:00;;;;;;;2.10;2.00;;;20.20;99.90;;;;;;5136783;28;20177;-42
2023/07/24 02:52:31;;;;;;;2.00;1.90;;;20.10;99.90;;;;;;5121831;28;20194;-42
2023/07/24 02:55:02;;;;;;;3.00;1.93;;;20.00;99.90;;;;;;5137063;28;20694;-42
2023/07/24 02:57:33;;;;;;;3.03;2.73;;;20.00;99.90;;;;;;5136050;28;20178;-43
2023/07/24 03:00:04;;;;;;;2.10;2.00;;;20.10;99.90;;;;;;5129586;28;20190;-44
2023/07/24 03:02:35;;;;;;;2.00;1.90;;;20.10;99.90;;;;;;5132715;28;20213;-45
2023/07/24 03:05:06;;;;;;;2.43;2.23;;;20.10;99.90;;;;;;5143076;28;20441;-42
2023/07/24 03:07:36;;;;;;;2.03;1.83;;;20.10;99.90;;;;;;5146013;28;20217;-42
2023/07/24 03:10:07;;;;;;;4.00;2.47;;;20.00;99.90;;;;;;5149059;28;20523;-44
2023/07/24 03:12:38;;;;;;;2.40;2.30;;;20.00;99.90;;;;;;5140692;28;20209;-43
2023/07/24 03:15:09;;;;;;;3.87;2.70;;;20.00;99.90;;;;;;5138697;28;20522;-42
2023/07/24 03:17:40;;;;;;;2.13;1.80;;;20.00;99.90;;;;;;5143351;28;20233;-43
2023/07/24 03:20:16;;;;;;;1.47;1.47;;;20.00;99.90;;;;;;5138410;28;20441;-42
2023/07/24 03:22:47;;;;;;;2.70;2.37;;;20.10;99.90;;;;;;5132401;28;20245;-41
2023/07/24 03:25:17;;;;;;;1.90;1.73;;;20.10;99.90;;;;;;5133925;28;20441;-45
2023/07/24 03:27:48;;;;;;;1.60;1.50;;;20.20;99.90;;;;;;5133705;28;20721;-43
2023/07/24 03:30:19;;;;;;;1.90;1.70;;;20.20;99.90;;;;;;5114300;28;20200;-42
2023/07/24 03:32:50;;;;;;;1.90;1.80;;;20.10;99.90;;;;;;5137789;28;20212;-44
2023/07/24 03:35:21;;;;;;;4.47;1.77;;;20.20;99.90;;;;;;5130736;28;20218;-43
2023/07/24 03:37:51;;;;;;;1.67;1.57;;;20.20;99.90;;;;;;5135381;28;20185;-42
2023/07/24 03:40:22;;;;;;;1.77;1.67;;;20.20;99.90;;;;;;5134375;28;21149;-46
2023/07/24 03:42:53;;;;;;;2.30;1.70;;;20.20;99.90;;;;;;5129095;28;20296;-43
2023/07/24 03:45:23;;;;;;;4.63;1.80;;;20.20;99.90;;;;;;5137920;28;20631;-43
2023/07/24 03:47:54;;;;;;;3.10;1.80;;;20.20;99.90;;;;;;5133344;28;20193;-43
2023/07/24 03:50:25;;;;;;;2.33;1.70;;;20.20;99.90;;;;;;5131645;28;20189;-44
2023/07/24 03:52:56;;;;;;;2.00;2.00;;;20.20;99.90;;;;;;5136364;28;20261;-43
2023/07/24 03:55:26;;;;;;;2.37;2.27;;;20.10;99.90;;;;;;5133475;28;20561;-43
2023/07/24 03:57:57;;;;;;;2.43;2.10;;;20.10;99.90;;;;;;5135973;28;20210;-44
2023/07/24 04:00:28;;;;;;;1.43;1.43;;;20.00;99.90;;;;;;5136752;28;20185;-44
2023/07/24 04:02:58;;;;;;;2.30;2.10;;;20.10;99.90;;;;;;5141084;28;20248;-45
2023/07/24 04:05:29;;;;;;;1.87;1.77;;;20.00;99.90;;;;;;5144200;28;20189;-43
2023/07/24 04:08:00;;;;;;;1.70;1.60;;;20.10;99.90;;;;;;5133540;28;20178;-42
2023/07/24 04:10:31;;;;;;;1.93;1.83;;;20.10;99.90;;;;;;5140167;28;20182;-45
2023/07/24 04:13:01;;;;;;;2.80;1.90;;;20.10;99.90;;;;;;5135302;28;20687;-42
2023/07/24 04:15:32;;;;;;;2.50;1.67;;;20.00;99.90;;;;;;5140725;28;20206;-43
2023/07/24 04:18:03;;;;;;;5.10;1.70;;;20.10;99.90;;;;;;5141218;28;20258;-43
2023/07/24 04:20:33;;;;;;;1.13;1.03;;;20.00;99.90;;;;;;5146965;28;20192;-44
2023/07/24 04:23:04;;;;;;;1.83;1.73;;;20.10;99.90;;;;;;5136848;28;20305;-43
2023/07/24 04:25:35;;;;;;;3.70;2.13;;;20.00;99.90;;;;;;5147707;28;20189;-42
2023/07/24 04:28:06;;;;;;;1.77;1.63;;;20.10;99.90;;;;;;5146168;28;20186;-42
2023/07/24 04:30:36;;;;;;;4.47;1.67;;;20.10;99.90;;;;;;5147969;28;20178;-43
2023/07/24 04:33:07;;;;;;;1.90;1.33;;;20.10;99.90;;;;;;5144176;28;20202;-43
2023/07/24 04:35:38;;;;;;;1.73;1.63;;;20.30;99.90;;;;;;5133815;28;20196;-43
2023/07/24 04:38:08;;;;;;;1.40;1.30;;;20.40;99.90;;;;;;5137875;28;20212;-42
2023/07/24 04:40:39;;;;;;;2.00;1.90;;;20.40;99.90;;;;;;5149964;28;20181;-42
2023/07/24 04:43:10;;;;;;;1.57;1.53;;;20.40;99.90;;;;;;5141090;28;20582;-43
2023/07/24 04:45:41;;;;;;;1.40;1.30;;;20.40;99.90;;;;;;5150136;28;20189;-45
2023/07/24 04:48:11;;;;;;;1.33;1.00;;;20.40;99.90;;;;;;5143654;28;20186;-44
2023/07/24 04:50:42;;;;;;;1.50;1.50;;;20.50;99.90;;;;;;5138452;28;20183;-42
2023/07/24 04:53:13;;;;;;;1.70;1.60;;;20.50;99.90;;;;;;5143795;28;20202;-43
2023/07/24 04:55:46;;;;;;;6.00;1.60;;;20.60;99.90;;;;;;5142905;28;20189;-44
2023/07/24 04:58:17;;;;;;;5.73;1.90;;;20.70;99.90;;;;;;5142434;28;20617;-43
2023/07/24 05:00:47;;;;;;;1.87;1.63;;;20.90;99.90;;;;;;5137510;28;20437;-45
2023/07/24 05:03:19;;;;;;;1.50;1.50;;;21.10;99.90;;;;;;5134532;28;20203;-43
2023/07/24 05:05:56;;;;;;;1.37;1.37;;;21.20;99.90;;;;;;5138626;28;20260;-43
2023/07/24 05:08:27;;;;;;;4.13;1.70;;;21.30;99.90;;;;;;5139708;28;20435;-42
2023/07/24 05:10:58;;;;;;;1.70;1.60;;;21.30;99.90;;;;;;5140238;28;20520;-42
2023/07/24 05:13:29;;;;;;;1.40;1.30;;;21.30;99.90;;;;;;5144742;28;20216;-43
2023/07/24 05:16:00;;;;;;;3.00;1.07;;;21.40;99.90;;;;;;5142140;28;20438;-43
2023/07/24 05:18:31;;;;;;;1.30;1.30;;;21.60;99.90;;;;;;5130834;28;20178;-43
2023/07/24 05:21:01;;;;;;;1.30;1.30;;;21.80;99.90;;;;;;5137185;28;20569;-43
2023/07/24 05:23:32;;;;;;;2.00;1.27;;;22.00;99.90;;;;;;5142923;28;20225;-45
2023/07/24 05:26:03;;;;;;;1.23;1.23;;;22.60;99.90;;;;;;5144266;28;20188;-42
2023/07/24 05:28:34;;;;;;;1.67;1.57;;;25.50;99.90;;;;;;5136952;28;20698;-42
2023/07/24 05:31:06;;;;;;;1.30;1.20;;;28.50;94.70;;;;;;5131421;28;20473;-44
2023/07/24 05:33:36;;;;;;;1.90;1.63;;;30.40;82.40;;;;;;5129383;28;20699;-42
2023/07/24 05:36:07;;;;;;;2.63;1.30;;;31.90;64.90;;;;;;5134554;28;20447;-45
2023/07/24 05:38:38;;;;;;;0.97;0.97;;;30.80;61.30;;;;;;5137030;28;20182;-43
2023/07/24 05:41:08;;;;;;;1.07;1.07;;;29.60;64.10;;;;;;5134129;28;20179;-43
2023/07/24 05:43:39;;;;;;;2.33;1.53;;;28.10;67.90;;;;;;5136024;28;20225;-42
2023/07/24 05:46:10;;;;;;;1.63;0.90;;;27.10;71.90;;;;;;5138879;28;20182;-44
2023/07/24 05:48:41;;;;;;;1.43;1.33;;;26.30;75.50;;;;;;5133699;28;20192;-42
2023/07/24 05:51:11;;;;;;;1.23;1.10;;;25.80;78.40;;;;;;5141778;28;20546;-43
2023/07/24 05:53:43;;;;;;;1.50;1.50;;;25.60;81.60;;;;;;5135285;28;20261;-43
2023/07/24 05:56:14;;;;;;;1.37;1.37;;;25.60;82.40;;;;;;5145029;28;20166;-42
2023/07/24 05:58:44;;;;;;;1.00;1.00;;;25.80;83.60;;;;;;5133103;28;20464;-43
2023/07/24 06:01:15;;;;;;;1.20;1.20;;;25.90;82.80;;;;;;5136972;28;20193;-44
2023/07/24 06:03:47;;;;;;;3.07;1.50;;;26.50;82.50;;;;;;5148451;28;20211;-43
2023/07/24 06:06:19;;;;;;;1.43;1.30;;;28.50;77.40;;;;;;5135976;28;20187;-44
2023/07/24 06:08:50;;;;;;;1.40;1.40;;;31.40;66.80;;;;;;5139264;28;20448;-43
2023/07/24 06:11:22;;;;;;;1.27;1.00;;;33.70;55.70;;;;;;5133053;28;20435;-44
2023/07/24 06:13:53;;;;;;;6.03;1.53;;;34.80;51.10;;;;;;5141530;28;20480;-44
2023/07/24 06:16:24;;;;;;;0.90;0.90;;;36.10;46.30;;;;;;5142134;28;20190;-43
2023/07/24 06:18:54;;;;;;;1.30;1.27;;;37.30;43.70;;;;;;5134097;28;20213;-43
2023/07/24 06:21:25;;;;;;;1.05;1.05;;;37.20;41.40;;;;;;5135074;28;20227;-45
2023/07/24 06:23:56;;;;;;;1.20;1.20;;;36.80;42.00;;;;;;5140945;28;20219;-44
2023/07/24 06:26:27;;;;;;;2.38;1.70;;;37.00;40.40;;;;;;5133799;28;20658;-43
2023/07/24 06:28:57;;;;;;;1.00;1.00;;;37.10;40.30;;;;;;5139600;28;20247;-43
2023/07/24 06:31:28;;;;;;;1.70;1.60;;;37.80;39.20;;;;;;5130293;28;20185;-44
2023/07/24 06:34:00;;;;;;;1.67;1.42;;;38.20;38.10;;;;;;5134518;28;20205;-43
2023/07/24 06:36:31;;;;;;;1.00;1.00;;;37.90;37.20;;;;;;5130262;28;20178;-43
2023/07/24 06:39:02;;;;;;;1.42;1.33;;;38.30;37.00;;;;;;5145693;28;20212;-43
2023/07/24 06:41:32;;;;;;;1.17;1.08;;;39.00;36.20;;;;;;5129930;28;20209;-44
2023/07/24 06:44:03;;;;;;;1.50;1.50;;;39.60;35.20;;;;;;5141975;28;20208;-43
2023/07/24 06:46:34;;;;;;;1.17;1.17;;;39.80;34.00;;;;;;5122428;28;20551;-42
2023/07/24 06:49:05;;;;;;;2.25;1.60;;;39.70;34.30;;;;;;5136028;28;20181;-43
2023/07/24 06:51:36;;;;;;;5.28;1.40;;;40.30;33.10;;;;;;5139033;28;20204;-43
2023/07/24 06:54:06;;;;;;;1.63;1.63;;;40.70;32.80;;;;;;5133194;28;20228;-43
2023/07/24 06:56:37;;;;;;;1.58;1.30;;;41.30;32.20;;;;;;5134303;28;20185;-44
2023/07/24 06:59:08;;;;;;;1.63;1.52;;;41.60;31.30;;;;;;5123333;28;20579;-43
2023/07/24 07:01:38;;;;;;;1.23;1.23;;;41.70;30.80;;;;;;5133573;28;20180;-43
2023/07/24 07:04:09;;;;;;;1.55;1.45;;;42.10;30.50;;;;;;5140186;28;20624;-44
2023/07/24 07:06:40;;;;;;;1.35;1.35;;;41.90;30.10;;;;;;5135612;28;20551;-43
2023/07/24 07:09:11;;;;;;;1.20;1.20;;;41.90;30.30;;;;;;5139778;28;20181;-44
2023/07/24 07:11:43;;;;;;;1.55;1.55;;;42.20;29.90;;;;;;5129357;28;20185;-44
2023/07/24 07:14:13;;;;;;;1.75;1.30;;;41.50;29.70;;;;;;5134851;28;20674;-43
2023/07/24 07:16:47;;;;;;;1.77;1.67;;;41.50;30.40;;;;;;5142859;28;20186;-45
2023/07/24 07:19:18;;;;;;;1.50;1.50;;;41.50;29.90;;;;;;5135591;28;20198;-43
2023/07/24 07:21:48;;;;;;;1.30;1.30;;;41.80;30.00;;;;;;5137597;28;20222;-46
2023/07/24 07:24:19;;;;;;;4.90;1.52;;;41.10;30.00;;;;;;5132985;28;20715;-43
2023/07/24 07:26:50;;;;;;;1.67;1.58;;;41.40;30.00;;;;;;5124430;28;20312;-43
2023/07/24 07:29:20;;;;;;;1.45;1.35;;;41.80;29.50;;;;;;5135547;28;20798;-44
2023/07/24 07:31:51;;;;;;;1.58;1.48;;;42.20;29.20;;;;;;5137778;28;20276;-43
2023/07/24 07:34:22;;;;;;;1.83;1.70;;;41.60;29.30;;;;;;5138665;28;20223;-44
2023/07/24 07:36:52;;;;;;;1.83;1.83;;;42.10;29.00;;;;;;5130812;28;20650;-43
2023/07/24 07:39:23;;;;;;;1.67;1.63;;;41.90;29.00;;;;;;5133409;28;20186;-43
2023/07/24 07:41:54;;;;;;;9.60;1.45;;;41.60;29.60;;;;;;5133068;28;20236;-43
2023/07/24 07:44:25;;;;;;;1.50;1.20;;;41.40;29.10;;;;;;5146379;28;20213;-42
2023/07/24 07:46:56;;;;;;;1.42;1.42;;;41.60;29.00;;;;;;5131776;28;20223;-44
2023/07/24 07:49:27;;;;;;;1.13;0.80;;;41.30;29.20;;;;;;5136138;28;20240;-43
2023/07/24 07:51:58;;;;;;;2.15;1.95;;;41.40;29.00;;;;;;5136331;28;20192;-44
2023/07/24 07:54:28;;;;;;;1.63;1.63;;;41.80;28.80;;;;;;5130954;28;20240;-43
2023/07/24 07:56:59;;;;;;;12.18;1.50;;;40.70;29.40;;;;;;5130643;28;20677;-44
2023/07/24 07:59:30;;;;;;;4.60;1.35;;;40.50;30.50;;;;;;5143841;28;20213;-44
2023/07/24 08:02:01;;;;;;;1.50;1.50;;;40.80;29.70;;;;;;5137224;28;20245;-43
2023/07/24 08:04:31;;;;;;;1.77;1.67;;;40.80;29.30;;;;;;5131050;28;20252;-43
2023/07/24 08:07:02;;;;;;;1.40;1.40;;;40.40;29.40;;;;;;5134936;28;20261;-44
2023/07/24 08:09:33;;;;;;;1.20;1.20;;;39.00;31.30;;;;;;5144810;28;20638;-44
2023/07/24 08:12:05;;;;;;;5.78;1.20;;;38.90;31.30;;;;;;5144907;28;20284;-43
2023/07/24 08:14:35;;;;;;;1.42;1.30;;;38.90;31.30;;;;;;5137030;28;20209;-44
2023/07/24 08:17:06;;;;;;;1.08;0.95;;;38.60;31.30;;;;;;5141842;28;20192;-44
2023/07/24 08:19:37;;;;;;;2.92;2.78;;;37.70;32.50;;;;;;5142277;28;20272;-43
2023/07/24 08:22:08;;;;;;;1.60;1.48;;;37.40;33.30;;;;;;5144548;28;20182;-43
2023/07/24 08:24:38;;;;;;;1.30;1.27;;;36.60;34.10;;;;;;5141003;28;20363;-43
2023/07/24 08:27:09;;;;;;;2.03;1.92;;;36.20;34.90;;;;;;5121939;28;20208;-44
2023/07/24 08:29:40;;;;;;;1.40;1.40;;;36.50;34.80;;;;;;5135179;28;20189;-44
2023/07/24 08:32:11;;;;;;;1.83;1.83;;;37.80;33.70;;;;;;5139354;28;20185;-45
2023/07/24 08:34:41;;;;;;;2.05;1.92;;;38.00;32.40;;;;;;5134767;28;20573;-44
2023/07/24 08:37:12;;;;;;;1.17;1.17;;;38.00;31.70;;;;;;5138020;28;20299;-44
2023/07/24 08:39:43;;;;;;;1.20;1.20;;;37.90;32.10;;;;;;5136999;28;20222;-45
2023/07/24 08:42:14;;;;;;;4.38;1.55;;;37.00;32.90;;;;;;5150203;28;20181;-42
2023/07/24 08:44:45;;;;;;;1.60;1.50;;;35.70;34.20;;;;;;5135496;28;20271;-43
2023/07/24 08:47:15;;;;;;;1.50;1.40;;;34.40;36.10;;;;;;5139349;28;20196;-50
2023/07/24 08:49:47;;;;;;;1.42;1.42;;;33.10;38.20;;;;;;5151736;28;20181;-43
2023/07/24 08:52:18;;;;;;;1.60;1.60;;;31.90;40.30;;;;;;5136493;28;20188;-42
2023/07/24 08:54:49;;;;;;;2.40;1.50;;;30.80;42.20;;;;;;5139553;28;20223;-43
2023/07/24 08:57:22;;;;;;;3.20;1.90;;;30.20;43.70;;;;;;5137876;28;20276;-42
2023/07/24 08:59:52;;;;;;;2.10;1.50;;;30.30;44.10;;;;;;5140028;28;20450;-45
2023/07/24 09:02:23;;;;;;;1.70;1.60;;;30.60;43.60;;;;;;5137877;28;20181;-44
2023/07/24 09:04:54;;;;;;;2.73;1.87;;;30.60;43.90;;;;;;5148866;28;20193;-43
2023/07/24 09:07:25;;;;;;;1.83;1.73;;;30.70;43.30;;;;;;5137794;28;20189;-43
2023/07/24 09:09:55;;;;;;;1.50;1.40;;;30.70;43.80;;;;;;5136922;28;20674;-42
2023/07/24 09:12:26;;;;;;;2.93;1.80;;;30.90;43.60;;;;;;5129612;28;20196;-43
2023/07/24 09:15:02;;;;;;;1.17;1.17;;;31.10;43.30;;;;;;5134243;28;20212;-43
2023/07/24 09:17:33;;;;;;;2.10;2.00;;;31.10;43.50;;;;;;5129016;28;20696;-45
2023/07/24 09:20:04;;;;;;;1.50;1.40;;;30.90;43.60;;;;;;5140175;28;20433;-43
2023/07/24 09:22:35;;;;;;;1.20;1.10;;;30.70;44.20;;;;;;5148911;28;20272;-43
2023/07/24 09:25:07;;;;;;;1.70;1.60;;;30.00;45.00;;;;;;5135092;28;20442;-44
2023/07/24 09:27:39;;;;;;;5.73;1.20;;;29.70;46.00;;;;;;5136513;28;20185;-43
2023/07/24 09:30:14;;;;;;;1.23;1.23;;;29.80;45.90;;;;;;5137286;28;20813;-43
2023/07/24 09:32:54;;;;;;;1.53;1.43;;;29.90;46.00;;;;;;5134159;28;20481;-42
2023/07/24 09:35:27;;;;;;;1.70;1.47;;;30.10;45.60;;;;;;5133933;28;20552;-43
2023/07/24 09:38:05;;;;;;;2.30;2.10;;;30.10;45.20;;;;;;5141632;28;20603;-43
2023/07/24 09:40:44;;;;;;;2.60;1.83;;;30.20;45.10;;;;;;5133374;28;20472;-44
2023/07/24 09:43:25;;;;;;;1.53;1.47;;;30.60;45.10;;;;;;5136239;28;20993;-44
2023/07/24 09:45:57;;;;;;;1.60;1.53;;;30.60;44.90;;;;;;5137009;28;20853;-43
2023/07/24 09:48:28;;;;;;;4.97;1.60;;;30.60;44.50;;;;;;5132786;28;20437;-43
2023/07/24 09:50:59;;;;;;;2.40;1.87;;;30.30;44.30;;;;;;5127599;28;20451;-44
2023/07/24 09:53:48;;;;;;;1.33;1.33;;;29.90;45.50;;;;;;5130613;28;20197;-45
2023/07/24 09:56:20;;;;;;;1.30;1.30;;;29.90;45.90;;;;;;5133395;28;20435;-44
2023/07/24 09:58:55;;;;;;;2.07;2.03;;;29.70;45.80;;;;;;5141342;28;20439;-44
2023/07/24 10:01:27;;;;;;;3.70;1.63;;;29.60;46.40;;;;;;5131365;28;20938;-44
2023/07/24 10:03:58;;;;;;;1.30;1.20;;;29.70;46.20;;;;;;5141912;28;20456;-44
2023/07/24 10:06:29;;;;;;;1.83;1.63;;;29.70;46.60;;;;;;5143446;28;20531;-43
2023/07/24 10:09:01;;;;;;;2.40;2.00;;;29.90;46.40;;;;;;5140065;28;20869;-45
2023/07/24 10:11:32;;;;;;;1.50;1.40;;;29.90;46.20;;;;;;5127252;28;20185;-44
2023/07/24 10:14:03;;;;;;;2.10;1.87;;;30.10;46.00;;;;;;5145772;28;20468;-44
2023/07/24 10:16:34;;;;;;;1.83;1.57;;;29.90;45.60;;;;;;5141941;28;20189;-43
2023/07/24 10:19:16;;;;;;;4.47;2.57;;;29.60;45.60;;;;;;5122822;28;20206;-46
2023/07/24 10:21:51;;;;;;;1.80;1.80;;;29.20;45.30;;;;;;5139516;28;20190;-44
2023/07/24 10:24:29;;;;;;;1.03;1.03;;;28.80;46.20;;;;;;5131900;28;20456;-43
2023/07/24 10:27:02;;;;;;;3.73;1.60;;;28.80;46.70;;;;;;5133939;28;20451;-43
2023/07/24 10:29:36;;;;;;;5.03;2.43;;;29.00;46.60;;;;;;5144394;28;20466;-43
2023/07/24 10:32:19;;;;;;;4.60;2.80;;;29.10;47.10;;;;;;5135773;28;20970;-43
2023/07/24 10:35:00;;;;;;;2.63;1.90;;;29.30;46.50;;;;;;5134588;28;20500;-45
2023/07/24 10:37:35;;;;;;;1.87;1.77;;;29.50;46.30;;;;;;5140343;28;20436;-43
2023/07/24 10:40:06;;;;;;;2.60;1.73;;;29.60;45.40;;;;;;5134597;28;20501;-43
2023/07/24 10:42:37;;;;;;;2.03;2.03;;;29.60;45.50;;;;;;5146334;28;20560;-44
2023/07/24 10:45:10;;;;;;;3.03;2.73;;;29.60;44.80;;;;;;5136084;28;20528;-44
2023/07/24 10:47:41;;;;;;;4.37;2.47;;;29.10;44.40;;;;;;5139516;28;20587;-42
2023/07/24 10:50:11;;;;;;;2.47;2.27;;;29.10;44.50;;;;;;5134304;28;20469;-45
2023/07/24 10:52:42;;;;;;;2.27;2.10;;;29.10;45.00;;;;;;5143184;28;20228;-42
2023/07/24 10:55:13;;;;;;;2.87;2.67;;;29.20;44.80;;;;;;5130987;28;20214;-43
2023/07/24 10:57:43;;;;;;;2.63;2.40;;;29.30;44.80;;;;;;5143935;28;20192;-43
2023/07/24 11:00:15;;;;;;;5.33;2.90;;;29.70;45.00;;;;;;5132602;28;20178;-44
2023/07/24 11:02:45;;;;;;;3.13;2.43;;;29.90;43.80;;;;;;5130195;28;20352;-43
2023/07/24 11:05:16;;;;;;;2.27;2.07;;;30.00;43.60;;;;;;5135860;28;20520;-44
2023/07/24 11:07:48;;;;;;;5.17;2.30;;;30.10;43.70;;;;;;5137291;28;20182;-44
2023/07/24 11:10:23;;;;;;;2.50;2.30;;;30.40;44.00;;;;;;5133375;28;20448;-44
2023/07/24 11:12:54;;;;;;;2.40;2.30;;;30.40;42.90;;;;;;5138506;28;20483;-44
2023/07/24 11:15:28;;;;;;;6.80;2.47;;;30.20;42.70;;;;;;5132561;28;20469;-43
2023/07/24 11:18:00;;;;;;;3.20;2.90;;;30.40;42.10;;;;;;5128373;28;20608;-44
2023/07/24 11:20:30;;;;;;;3.33;3.03;;;30.60;41.80;;;;;;5139102;28;20428;-44
2023/07/24 11:23:01;;;;;;;4.27;3.13;;;30.70;41.00;;;;;;5141130;28;20957;-44
2023/07/24 11:25:32;;;;;;;6.83;4.17;;;30.60;41.20;;;;;;5127138;28;20185;-43
2023/07/24 11:28:08;;;;;;;6.77;4.57;;;30.40;41.40;;;;;;5128457;28;20198;-42
2023/07/24 11:30:40;;;;;;;4.63;3.37;;;30.20;41.60;;;;;;5131710;28;20507;-42
2023/07/24 11:33:13;;;;;;;2.47;2.37;;;30.00;41.60;;;;;;5130734;28;20464;-43
2023/07/24 11:35:44;;;;;;;6.00;3.13;;;29.70;41.90;;;;;;5133219;28;20480;-43
2023/07/24 11:38:16;;;;;;;6.43;3.13;;;29.60;42.00;;;;;;5133848;28;21135;-42
2023/07/24 11:40:47;;;;;;;3.20;2.90;;;29.40;42.10;;;;;;5133000;28;20182;-43
2023/07/24 11:43:22;;;;;;;6.23;3.23;;;29.60;42.60;;;;;;5135041;28;20551;-43
2023/07/24 11:45:54;;;;;;;3.83;3.50;;;29.80;42.40;;;;;;5136462;28;20173;-43
2023/07/24 11:48:25;;;;;;;4.60;3.27;;;30.00;42.20;;;;;;5136800;28;20515;-43
2023/07/24 11:50:56;;;;;;;3.90;2.80;;;29.80;42.20;;;;;;5140361;28;20988;-43
2023/07/24 11:53:29;;;;;;;2.73;2.63;;;29.80;41.70;;;;;;5154255;28;20211;-42
2023/07/24 11:56:02;;;;;;;3.57;2.77;;;29.70;42.20;;;;;;5141611;28;20440;-42
2023/07/24 11:58:32;;;;;;;4.00;3.70;;;29.70;42.10;;;;;;5131416;28;20472;-43
2023/07/24 12:01:03;;;;;;;8.33;4.47;;;29.90;42.50;;;;;;5133946;28;20480;-44
2023/07/24 12:03:35;;;;;;;6.77;4.57;;;30.10;42.40;;;;;;5134619;28;20232;-42
2023/07/24 12:06:13;;;;;;;4.80;2.93;;;30.00;41.80;;;;;;5134015;28;20285;-43
2023/07/24 12:08:44;;;;;;;3.20;2.90;;;30.10;42.70;;;;;;5134268;28;20429;-44
2023/07/24 12:11:18;;;;;;;4.57;3.37;;;29.90;42.00;;;;;;5136886;28;20436;-43
2023/07/24 12:13:49;;;;;;;3.20;2.90;;;29.40;42.30;;;;;;5143204;28;20570;-45
2023/07/24 12:16:20;;;;;;;5.80;3.37;;;28.90;43.20;;;;;;5134100;28;20532;-42
2023/07/24 12:18:50;;;;;;;3.90;3.40;;;28.60;43.90;;;;;;5141626;28;20604;-43
2023/07/24 12:21:21;;;;;;;9.77;3.60;;;28.40;44.50;;;;;;5129713;28;20201;-43
2023/07/24 12:23:52;;;;;;;7.33;3.40;;;27.90;45.70;;;;;;5135998;28;20234;-45
2023/07/24 12:26:25;;;;;;;3.37;3.10;;;27.10;53.10;;;;;;5148299;28;20193;-44
2023/07/24 12:28:55;;;;;;;3.93;3.37;;;26.20;55.90;;;;;;5136174;28;20612;-43
2023/07/24 12:31:26;;;;;;;9.27;4.57;;;25.40;58.50;;;;;;5139969;28;20429;-43
2023/07/24 12:33:57;;;;;;;8.23;3.30;;;24.90;61.60;;;;;;5133208;28;20217;-42
2023/07/24 12:36:28;;;;;;;6.17;3.40;;;24.40;63.40;;;;;;5137987;28;20441;-43
2023/07/24 12:38:58;;;;;;;3.50;3.20;;;24.10;65.00;;;;;;5128750;28;20288;-44
2023/07/24 12:41:29;;;;;;;3.60;3.30;;;23.90;65.70;;;;;;5141711;28;20186;-44
2023/07/24 12:44:00;;;;;;;3.67;3.30;;;23.90;67.90;;;;;;5136023;28;20214;-44
2023/07/24 12:46:31;;;;;;;7.83;3.40;;;24.00;68.90;;;;;;5133835;28;20189;-43
2023/07/24 12:49:01;;;;;;;2.97;2.77;;;24.00;69.30;;;;;;5132039;28;20192;-44
2023/07/24 12:51:32;;;;;;;2.43;2.30;;;23.90;72.80;;;;;;5130944;28;20190;-45
2023/07/24 12:54:03;;;;;;;2.60;2.50;;;23.90;74.40;;;;;;5136244;28;20221;-43
2023/07/24 12:56:33;;;;;;;4.27;3.33;;;24.20;78.60;;;;;;5137896;28;20565;-43
2023/07/24 12:59:04;;;;;;;5.50;4.97;;;24.50;77.40;;;;;;5133783;28;20262;-47
2023/07/24 13:01:35;;;;;;;6.83;3.27;;;24.70;76.80;;;;;;5136100;28;20598;-43
2023/07/24 13:04:05;;;;;;;9.23;3.50;;;24.90;76.90;;;;;;5141217;28;20297;-43
2023/07/24 13:06:36;;;;;;;2.97;2.77;;;25.20;76.50;;;;;;5133942;28;20188;-42
2023/07/24 13:09:07;;;;;;;2.90;2.70;;;25.20;74.70;;;;;;5142586;28;20276;-45